Aeroporto :
LOGIN :

Iscrizione | Disclaimer

   EN    FR    IT 

 










Sommario :    VFR   VFR Marginale   IFR   IFR Intensivo   IFR Molto Intensivo
Visibilità : 
Base nubi : 
>= 8 km
>= 3000ft
5 / 8 km
1000 / 3000 ft
1500m / 5 km
500 / 1000 ft
800 / 1500m
200 / 500 ft
< 800m
< 200 ft
Simboli :   Temporali  Nebbia  Neve Forte  Precipitazioni Forti  Vento > 20 kt
SIGMETs :   Varie  Temporali  Ghiacco  Turbolenza  Onda orograficha  Ceneri Vulcaniche






- Altitudine del aeroporto : 42 ft
- Codice IATA : KGD


UMKK - Khrabrava - Kaliningrad

ULTIMO METAR :
  • 041800Z 26003MPS 9999 FEW030 03/01 Q1027 R24/CLRD95 NOSIG RMK QFE769/1025

METARs OBSOLETI :
  • 041730Z 28004MPS 9999 FEW030 04/01 Q1027 R24/CLRD95 NOSIG RMK QFE769/1025
  • 041700Z 29004MPS 9999 FEW030 05/01 Q1026 R24/CLRD95 NOSIG RMK QFE768/1025
  • 041630Z 28006MPS 9999 FEW030 06/01 Q1026 R24/CLRD95 NOSIG RMK QFE768/1024
  • 041600Z 28007MPS 9999 FEW030 06/01 Q1026 R24/CLRD95 NOSIG RMK QFE768/1024
  • 041530Z 28008MPS 9999 FEW030 06/M00 Q1025 R24/CLRD95 NOSIG RMK QFE768/1024

TAF TAF UMKK
Valido dal 04 a 18 ore il 05 a 18 ore UTC


041654Z 0418/0518 24003G08MPS 9999 SCT011
TEMPO 0421/0424 3100 BR BKN011
TEMPO 0500/0506 0500 FG BKN003
BECMG 0501/0503 20003G08MPS
BECMG 0508/0510 27005G10MPS
BECMG 0515/0517 19003G08MPS



MetMap, La meteo Aeronautica in un colpo d'occhio ! - Copyright ORBIFLY Dicembre 2007 - Disclaimer

ORBIFLY MET'MAP TEAM :

Programmazione e sviluppo : Alexandra Zaïnal
Concezione : Baudouin d'Aumeries
Aiuto per la programmazione : Marc-Olivier Méhu
Supporto tecnico e logistico : Manuel Goepfert
Aiuto per la traduzione : Arnaldo La Scala

Contatto : metmap@orbifly.com




FONTI E CREDITI :

   NOAA